sensor_id;sensor_type;location;lat;lon;timestamp;pressure;altitude;pressure_sealevel;temperature;humidity
39769;BME280;38939;47.824;14.642;2022-07-29T00:00:13;96711.38;;;22.08;68.57
39769;BME280;38939;47.824;14.642;2022-07-29T00:01:15;96710.56;;;22.07;68.17
39769;BME280;38939;47.824;14.642;2022-07-29T00:02:20;96708.41;;;22.09;69.38
39769;BME280;38939;47.824;14.642;2022-07-29T00:03:21;96712.94;;;22.09;69.04
39769;BME280;38939;47.824;14.642;2022-07-29T00:04:23;96709.22;;;22.10;68.60
39769;BME280;38939;47.824;14.642;2022-07-29T00:05:25;96708.91;;;22.11;68.41
39769;BME280;38939;47.824;14.642;2022-07-29T00:06:27;96710.53;;;22.12;68.59
39769;BME280;38939;47.824;14.642;2022-07-29T00:07:29;96713.19;;;22.12;68.52
39769;BME280;38939;47.824;14.642;2022-07-29T00:08:31;96720.06;;;22.13;68.87
39769;BME280;38939;47.824;14.642;2022-07-29T00:09:33;96713.97;;;22.13;68.86
39769;BME280;38939;47.824;14.642;2022-07-29T00:10:51;96723.28;;;22.10;69.18
39769;BME280;38939;47.824;14.642;2022-07-29T00:11:53;96725.72;;;22.07;68.86
39769;BME280;38939;47.824;14.642;2022-07-29T00:12:56;96720.66;;;22.05;69.18
39769;BME280;38939;47.824;14.642;2022-07-29T00:13:58;96717.56;;;21.98;69.80
39769;BME280;38939;47.824;14.642;2022-07-29T00:15:00;96723.69;;;21.93;69.51
39769;BME280;38939;47.824;14.642;2022-07-29T00:16:02;96727.16;;;21.94;68.93
39769;BME280;38939;47.824;14.642;2022-07-29T00:17:05;96726.13;;;21.90;69.56
39769;BME280;38939;47.824;14.642;2022-07-29T00:18:07;96720.59;;;21.86;69.11
39769;BME280;38939;47.824;14.642;2022-07-29T00:19:09;96718.72;;;21.87;69.81
39769;BME280;38939;47.824;14.642;2022-07-29T00:20:11;96722.16;;;21.87;70.20
39769;BME280;38939;47.824;14.642;2022-07-29T00:21:13;96715.78;;;21.88;69.54
39769;BME280;38939;47.824;14.642;2022-07-29T00:22:14;96712.34;;;21.88;70.13
39769;BME280;38939;47.824;14.642;2022-07-29T00:23:16;96712.38;;;21.83;69.87
39769;BME280;38939;47.824;14.642;2022-07-29T00:24:18;96714.78;;;21.79;70.15
39769;BME280;38939;47.824;14.642;2022-07-29T00:25:20;96710.28;;;21.80;70.45
39769;BME280;38939;47.824;14.642;2022-07-29T00:26:22;96715.34;;;21.76;71.30
39769;BME280;38939;47.824;14.642;2022-07-29T00:27:24;96716.16;;;21.76;71.46
39769;BME280;38939;47.824;14.642;2022-07-29T00:28:25;96720.44;;;21.72;72.02
39769;BME280;38939;47.824;14.642;2022-07-29T00:29:27;96713.06;;;21.64;72.46
39769;BME280;38939;47.824;14.642;2022-07-29T00:30:34;96720.84;;;21.55;72.59
39769;BME280;38939;47.824;14.642;2022-07-29T00:31:36;96725.91;;;21.52;73.07
39769;BME280;38939;47.824;14.642;2022-07-29T00:32:38;96720.84;;;21.50;72.33
39769;BME280;38939;47.824;14.642;2022-07-29T00:33:40;96719.81;;;21.51;71.88
39769;BME280;38939;47.824;14.642;2022-07-29T00:34:42;96721.38;;;21.52;71.81
39769;BME280;38939;47.824;14.642;2022-07-29T00:36:02;96722.16;;;21.53;72.42
39769;BME280;38939;47.824;14.642;2022-07-29T00:37:04;96721.13;;;21.49;72.46
39769;BME280;38939;47.824;14.642;2022-07-29T00:38:08;96720.34;;;21.48;71.77
39769;BME280;38939;47.824;14.642;2022-07-29T00:39:09;96718.97;;;21.51;71.36
39769;BME280;38939;47.824;14.642;2022-07-29T00:40:11;96727.97;;;21.55;71.32
39769;BME280;38939;47.824;14.642;2022-07-29T00:41:13;96720.25;;;21.58;71.28
39769;BME280;38939;47.824;14.642;2022-07-29T00:42:15;96729.53;;;21.61;71.83
39769;BME280;38939;47.824;14.642;2022-07-29T00:43:18;96719.22;;;21.60;72.35
39769;BME280;38939;47.824;14.642;2022-07-29T00:44:20;96723.69;;;21.59;72.73
39769;BME280;38939;47.824;14.642;2022-07-29T00:45:21;96729.59;;;21.56;72.78
39769;BME280;38939;47.824;14.642;2022-07-29T00:46:23;96728.28;;;21.53;72.41
39769;BME280;38939;47.824;14.642;2022-07-29T00:47:25;96726.13;;;21.55;72.28
39769;BME280;38939;47.824;14.642;2022-07-29T00:48:27;96729.31;;;21.57;71.94
39769;BME280;38939;47.824;14.642;2022-07-29T00:49:29;96724.53;;;21.54;72.62
39769;BME280;38939;47.824;14.642;2022-07-29T00:50:31;96732.56;;;21.49;72.28
39769;BME280;38939;47.824;14.642;2022-07-29T00:51:34;96728.88;;;21.45;71.96
39769;BME280;38939;47.824;14.642;2022-07-29T00:52:37;96733.66;;;21.43;71.84
39769;BME280;38939;47.824;14.642;2022-07-29T00:53:40;96727.53;;;21.43;71.65
39769;BME280;38939;47.824;14.642;2022-07-29T00:54:43;96728.59;;;21.42;71.51
39769;BME280;38939;47.824;14.642;2022-07-29T00:55:45;96740.81;;;21.37;73.36
39769;BME280;38939;47.824;14.642;2022-07-29T00:56:47;96743.50;;;21.32;72.95
39769;BME280;38939;47.824;14.642;2022-07-29T00:57:49;96737.13;;;21.33;72.46
39769;BME280;38939;47.824;14.642;2022-07-29T00:58:51;96745.34;;;21.37;72.07
39769;BME280;38939;47.824;14.642;2022-07-29T00:59:52;96733.91;;;21.36;72.88
39769;BME280;38939;47.824;14.642;2022-07-29T01:00:54;96741.38;;;21.34;73.54
39769;BME280;38939;47.824;14.642;2022-07-29T01:01:56;96740.84;;;21.32;73.61
39769;BME280;38939;47.824;14.642;2022-07-29T01:02:58;96733.97;;;21.31;73.88
39769;BME280;38939;47.824;14.642;2022-07-29T01:04:00;96738.47;;;21.31;72.76
39769;BME280;38939;47.824;14.642;2022-07-29T01:05:03;96739.78;;;21.33;72.61
39769;BME280;38939;47.824;14.642;2022-07-29T01:06:06;96736.88;;;21.35;72.85
39769;BME280;38939;47.824;14.642;2022-07-29T01:07:08;96738.19;;;21.32;72.78
39769;BME280;38939;47.824;14.642;2022-07-29T01:08:10;96742.72;;;21.32;72.77
39769;BME280;38939;47.824;14.642;2022-07-29T01:09:13;96746.41;;;21.31;72.57
39769;BME280;38939;47.824;14.642;2022-07-29T01:10:16;96740.31;;;21.30;72.40
39769;BME280;38939;47.824;14.642;2022-07-29T01:11:19;96736.63;;;21.31;72.10
39769;BME280;38939;47.824;14.642;2022-07-29T01:12:23;96736.06;;;21.34;72.06
39769;BME280;38939;47.824;14.642;2022-07-29T01:13:25;96740.56;;;21.34;72.16
39769;BME280;38939;47.824;14.642;2022-07-29T01:14:28;96739.53;;;21.30;72.62
39769;BME280;38939;47.824;14.642;2022-07-29T01:15:30;96743.81;;;21.26;72.38
39769;BME280;38939;47.824;14.642;2022-07-29T01:16:32;96744.59;;;21.26;72.22
39769;BME280;38939;47.824;14.642;2022-07-29T01:17:39;96747.50;;;21.30;72.19
39769;BME280;38939;47.824;14.642;2022-07-29T01:18:54;96740.91;;;21.27;72.42
39769;BME280;38939;47.824;14.642;2022-07-29T01:20:17;96746.72;;;21.24;73.15
39769;BME280;38939;47.824;14.642;2022-07-29T01:25:10;96752.16;;;21.09;73.34
39769;BME280;38939;47.824;14.642;2022-07-29T01:30:18;96750.53;;;21.08;74.80
39769;BME280;38939;47.824;14.642;2022-07-29T01:33:02;96752.41;;;21.07;73.55
39769;BME280;38939;47.824;14.642;2022-07-29T01:34:05;96751.88;;;21.05;73.86
39769;BME280;38939;47.824;14.642;2022-07-29T01:35:23;96751.94;;;20.95;75.22
39769;BME280;38939;47.824;14.642;2022-07-29T01:36:35;96758.03;;;20.90;74.40
39769;BME280;38939;47.824;14.642;2022-07-29T01:37:47;96754.84;;;20.93;73.99
39769;BME280;38939;47.824;14.642;2022-07-29T01:38:54;96766.25;;;20.99;73.60
39769;BME280;38939;47.824;14.642;2022-07-29T01:39:59;96763.84;;;21.03;73.72
39769;BME280;38939;47.824;14.642;2022-07-29T01:41:08;96772.31;;;21.05;73.86
39769;BME280;38939;47.824;14.642;2022-07-29T01:42:23;96765.94;;;21.06;73.61
39769;BME280;38939;47.824;14.642;2022-07-29T01:43:31;96772.84;;;21.07;74.40
39769;BME280;38939;47.824;14.642;2022-07-29T01:44:38;96765.97;;;21.01;74.64
39769;BME280;38939;47.824;14.642;2022-07-29T01:45:41;96767.28;;;20.98;74.50
39769;BME280;38939;47.824;14.642;2022-07-29T01:46:49;96769.69;;;21.00;74.17
39769;BME280;38939;47.824;14.642;2022-07-29T01:48:55;96774.16;;;21.04;74.00
39769;BME280;38939;47.824;14.642;2022-07-29T01:49:59;96768.84;;;21.04;73.65
39769;BME280;38939;47.824;14.642;2022-07-29T01:51:04;96765.69;;;21.02;73.88
39769;BME280;38939;47.824;14.642;2022-07-29T01:52:08;96771.81;;;21.03;73.42
39769;BME280;38939;47.824;14.642;2022-07-29T01:53:12;96769.16;;;21.03;73.61
39769;BME280;38939;47.824;14.642;2022-07-29T01:54:37;96762.50;;;21.00;73.82
39769;BME280;38939;47.824;14.642;2022-07-29T01:55:41;96768.38;;;20.97;74.18
39769;BME280;38939;47.824;14.642;2022-07-29T01:56:45;96759.06;;;20.94;73.80
39769;BME280;38939;47.824;14.642;2022-07-29T01:57:49;96763.84;;;20.97;73.56
39769;BME280;38939;47.824;14.642;2022-07-29T01:58:51;96762.78;;;20.98;73.24
39769;BME280;38939;47.824;14.642;2022-07-29T01:59:53;96763.06;;;20.97;72.97
39769;BME280;38939;47.824;14.642;2022-07-29T02:00:56;96763.06;;;20.97;72.98
39769;BME280;38939;47.824;14.642;2022-07-29T02:01:59;96764.13;;;20.96;73.99
39769;BME280;38939;47.824;14.642;2022-07-29T02:03:04;96763.88;;;20.92;74.17
39769;BME280;38939;47.824;14.642;2022-07-29T02:04:07;96762.03;;;20.88;74.41
39769;BME280;38939;47.824;14.642;2022-07-29T02:05:27;96762.84;;;20.78;74.68
39769;BME280;38939;47.824;14.642;2022-07-29T02:06:30;96766.84;;;20.75;74.61
39769;BME280;38939;47.824;14.642;2022-07-29T02:07:34;96759.41;;;20.77;74.43
39769;BME280;38939;47.824;14.642;2022-07-29T02:08:36;96766.31;;;20.78;74.40
39769;BME280;38939;47.824;14.642;2022-07-29T02:09:40;96761.53;;;20.81;74.21
39769;BME280;38939;47.824;14.642;2022-07-29T02:10:42;96767.38;;;20.83;74.22
39769;BME280;38939;47.824;14.642;2022-07-29T02:11:48;96763.91;;;20.82;74.09
39769;BME280;38939;47.824;14.642;2022-07-29T02:12:52;96761.81;;;20.79;74.34
39769;BME280;38939;47.824;14.642;2022-07-29T02:13:55;96766.06;;;20.75;75.03
39769;BME280;38939;47.824;14.642;2022-07-29T02:14:59;96768.72;;;20.70;74.42
39769;BME280;38939;47.824;14.642;2022-07-29T02:16:02;96763.97;;;20.67;74.11
39769;BME280;38939;47.824;14.642;2022-07-29T02:17:07;96770.06;;;20.67;73.78
39769;BME280;38939;47.824;14.642;2022-07-29T02:18:16;96763.16;;;20.66;73.83
39769;BME280;38939;47.824;14.642;2022-07-29T02:19:19;96766.88;;;20.65;74.24
39769;BME280;38939;47.824;14.642;2022-07-29T02:20:22;96767.16;;;20.64;74.83
39769;BME280;38939;47.824;14.642;2022-07-29T02:21:26;96772.72;;;20.62;75.16
39769;BME280;38939;47.824;14.642;2022-07-29T02:22:30;96768.50;;;20.61;74.43
39769;BME280;38939;47.824;14.642;2022-07-29T02:23:33;96773.78;;;20.61;74.08
39769;BME280;38939;47.824;14.642;2022-07-29T02:24:50;96772.47;;;20.58;73.82
39769;BME280;38939;47.824;14.642;2022-07-29T02:25:53;96776.94;;;20.58;73.76
39769;BME280;38939;47.824;14.642;2022-07-29T02:26:56;96769.81;;;20.58;73.72
39769;BME280;38939;47.824;14.642;2022-07-29T02:28:00;96777.22;;;20.62;73.96
39769;BME280;38939;47.824;14.642;2022-07-29T02:29:04;96776.19;;;20.63;73.90
39769;BME280;38939;47.824;14.642;2022-07-29T02:30:06;96774.31;;;20.63;73.75
39769;BME280;38939;47.824;14.642;2022-07-29T02:31:08;96780.97;;;20.61;74.43
39769;BME280;38939;47.824;14.642;2022-07-29T02:32:11;96786.53;;;20.59;74.41
39769;BME280;38939;47.824;14.642;2022-07-29T02:33:15;96790.47;;;20.56;74.25
39769;BME280;38939;47.824;14.642;2022-07-29T02:34:18;96785.69;;;20.53;74.68
39769;BME280;38939;47.824;14.642;2022-07-29T02:35:21;96787.31;;;20.49;74.62
39769;BME280;38939;47.824;14.642;2022-07-29T02:36:23;96786.25;;;20.50;74.08
39769;BME280;38939;47.824;14.642;2022-07-29T02:37:26;96786.25;;;20.50;74.07
39769;BME280;38939;47.824;14.642;2022-07-29T02:38:29;96793.13;;;20.51;74.81
39769;BME280;38939;47.824;14.642;2022-07-29T02:39:51;96795.50;;;20.48;74.31
39769;BME280;38939;47.824;14.642;2022-07-29T02:40:53;96791.03;;;20.48;74.14
39769;BME280;38939;47.824;14.642;2022-07-29T02:42:07;96791.56;;;20.50;74.13
39769;BME280;38939;47.824;14.642;2022-07-29T02:43:09;96797.38;;;20.47;74.93
39769;BME280;38939;47.824;14.642;2022-07-29T02:44:14;96792.34;;;20.46;74.29
39769;BME280;38939;47.824;14.642;2022-07-29T02:45:18;96798.97;;;20.48;74.16
39769;BME280;38939;47.824;14.642;2022-07-29T02:46:21;96799.50;;;20.50;74.51
39769;BME280;38939;47.824;14.642;2022-07-29T02:47:47;96796.56;;;20.52;74.36
39769;BME280;38939;47.824;14.642;2022-07-29T02:48:55;96789.44;;;20.52;74.32
39769;BME280;38939;47.824;14.642;2022-07-29T02:51:09;96799.53;;;20.40;75.07
39769;BME280;38939;47.824;14.642;2022-07-29T02:52:38;96800.06;;;20.42;75.15
39769;BME280;38939;47.824;14.642;2022-07-29T02:53:41;96799.53;;;20.40;75.82
39769;BME280;38939;47.824;14.642;2022-07-29T02:55:59;96799.53;;;20.25;76.58
39769;BME280;38939;47.824;14.642;2022-07-29T02:57:04;96811.72;;;20.26;76.01
39769;BME280;38939;47.824;14.642;2022-07-29T02:59:10;96800.56;;;20.24;75.77
39769;BME280;38939;47.824;14.642;2022-07-29T03:00:13;96800.06;;;20.22;76.26
39769;BME280;38939;47.824;14.642;2022-07-29T03:01:16;96800.06;;;20.22;75.76
39769;BME280;38939;47.824;14.642;2022-07-29T03:02:22;96792.91;;;20.22;75.51
39769;BME280;38939;47.824;14.642;2022-07-29T03:03:26;96793.44;;;20.19;76.70
39769;BME280;38939;47.824;14.642;2022-07-29T03:04:30;96788.91;;;20.19;75.92
39769;BME280;38939;47.824;14.642;2022-07-29T03:05:32;96785.75;;;20.23;75.59
39769;BME280;38939;47.824;14.642;2022-07-29T03:06:38;96785.22;;;20.26;75.38
39769;BME280;38939;47.824;14.642;2022-07-29T03:07:40;96786.25;;;20.30;75.33
39769;BME280;38939;47.824;14.642;2022-07-29T03:08:44;96789.44;;;20.32;75.08
39769;BME280;38939;47.824;14.642;2022-07-29T03:09:47;96778.56;;;20.33;75.03
39769;BME280;38939;47.824;14.642;2022-07-29T03:10:50;96782.28;;;20.37;75.02
39769;BME280;38939;47.824;14.642;2022-07-29T03:11:52;96788.41;;;20.38;75.69
39769;BME280;38939;47.824;14.642;2022-07-29T03:12:56;96785.75;;;20.33;76.83
39769;BME280;38939;47.824;14.642;2022-07-29T03:13:59;96791.03;;;20.28;77.57
39769;BME280;38939;47.824;14.642;2022-07-29T03:15:02;96783.63;;;20.25;76.61
39769;BME280;38939;47.824;14.642;2022-07-29T03:16:04;96788.94;;;20.25;76.38
39769;BME280;38939;47.824;14.642;2022-07-29T03:17:06;96790.78;;;20.19;77.04
39769;BME280;38939;47.824;14.642;2022-07-29T03:18:08;96787.88;;;20.21;76.41
39769;BME280;38939;47.824;14.642;2022-07-29T03:19:11;96782.03;;;20.24;76.09
39769;BME280;38939;47.824;14.642;2022-07-29T03:20:12;96783.63;;;20.25;75.86
39769;BME280;38939;47.824;14.642;2022-07-29T03:21:15;96789.47;;;20.27;75.89
39769;BME280;38939;47.824;14.642;2022-07-29T03:22:17;96787.34;;;20.29;75.88
39769;BME280;38939;47.824;14.642;2022-07-29T03:23:20;96790.50;;;20.31;76.29
39769;BME280;38939;47.824;14.642;2022-07-29T03:24:28;96789.44;;;20.32;76.24
39769;BME280;38939;47.824;14.642;2022-07-29T03:25:30;96795.25;;;20.34;75.95
39769;BME280;38939;47.824;14.642;2022-07-29T03:26:32;96790.53;;;20.36;75.90
39769;BME280;38939;47.824;14.642;2022-07-29T03:27:34;96793.69;;;20.38;75.64
39769;BME280;38939;47.824;14.642;2022-07-29T03:28:37;96796.63;;;20.36;75.39
39769;BME280;38939;47.824;14.642;2022-07-29T03:29:42;96791.31;;;20.36;75.43
39769;BME280;38939;47.824;14.642;2022-07-29T03:30:50;96793.16;;;20.31;76.01
39769;BME280;38939;47.824;14.642;2022-07-29T03:31:53;96790.25;;;20.27;76.00
39769;BME280;38939;47.824;14.642;2022-07-29T03:32:55;96797.66;;;20.25;76.12
39769;BME280;38939;47.824;14.642;2022-07-29T03:33:59;96790.50;;;20.26;75.78
39769;BME280;38939;47.824;14.642;2022-07-29T03:35:01;96784.41;;;20.25;75.46
39769;BME280;38939;47.824;14.642;2022-07-29T03:36:03;96795.53;;;20.27;75.40
39769;BME280;38939;47.824;14.642;2022-07-29T03:37:05;96792.13;;;20.27;75.56
39769;BME280;38939;47.824;14.642;2022-07-29T03:38:07;96790.50;;;20.26;75.55
39769;BME280;38939;47.824;14.642;2022-07-29T03:39:09;96794.50;;;20.28;75.21
39769;BME280;38939;47.824;14.642;2022-07-29T03:40:22;96790.78;;;20.29;75.11
39769;BME280;38939;47.824;14.642;2022-07-29T03:41:27;96793.16;;;20.31;75.08
39769;BME280;38939;47.824;14.642;2022-07-29T03:42:32;96796.59;;;20.31;75.03
39769;BME280;38939;47.824;14.642;2022-07-29T03:43:37;96793.69;;;20.33;75.04
39769;BME280;38939;47.824;14.642;2022-07-29T03:44:50;96797.13;;;20.33;74.72
39769;BME280;38939;47.824;14.642;2022-07-29T03:45:53;96797.13;;;20.33;74.92
39769;BME280;38939;47.824;14.642;2022-07-29T03:46:57;96790.53;;;20.36;74.92
39769;BME280;38939;47.824;14.642;2022-07-29T03:48:07;96784.69;;;20.39;74.75
39769;BME280;38939;47.824;14.642;2022-07-29T03:49:09;96787.31;;;20.39;75.08
39769;BME280;38939;47.824;14.642;2022-07-29T03:50:13;96783.88;;;20.38;75.63
39769;BME280;38939;47.824;14.642;2022-07-29T03:51:16;96782.56;;;20.36;75.44
39769;BME280;38939;47.824;14.642;2022-07-29T03:52:18;96786.00;;;20.36;75.45
39769;BME280;38939;47.824;14.642;2022-07-29T03:53:20;96783.09;;;20.38;75.34
39769;BME280;38939;47.824;14.642;2022-07-29T03:54:22;96782.81;;;20.39;74.93
39769;BME280;38939;47.824;14.642;2022-07-29T03:55:24;96780.16;;;20.39;75.08
39769;BME280;38939;47.824;14.642;2022-07-29T03:56:27;96777.25;;;20.41;75.21
39769;BME280;38939;47.824;14.642;2022-07-29T03:57:30;96786.50;;;20.44;75.06
39769;BME280;38939;47.824;14.642;2022-07-29T03:58:32;96784.69;;;20.44;75.13
39769;BME280;38939;47.824;14.642;2022-07-29T03:59:34;96778.31;;;20.45;75.22
39769;BME280;38939;47.824;14.642;2022-07-29T04:00:36;96782.81;;;20.45;75.49
39769;BME280;38939;47.824;14.642;2022-07-29T04:01:39;96779.91;;;20.41;75.68
39769;BME280;38939;47.824;14.642;2022-07-29T04:02:43;96781.75;;;20.41;75.65
39769;BME280;38939;47.824;14.642;2022-07-29T04:03:50;96773.53;;;20.37;76.08
39769;BME280;38939;47.824;14.642;2022-07-29T04:04:52;96781.50;;;20.37;76.30
39769;BME280;38939;47.824;14.642;2022-07-29T04:06:05;96774.63;;;20.36;76.20
39769;BME280;38939;47.824;14.642;2022-07-29T04:07:09;96776.72;;;20.34;76.30
39769;BME280;38939;47.824;14.642;2022-07-29T04:08:13;96780.97;;;20.35;76.12
39769;BME280;38939;47.824;14.642;2022-07-29T04:09:15;96774.63;;;20.36;76.52
39769;BME280;38939;47.824;14.642;2022-07-29T04:10:17;96780.44;;;20.38;76.24
39769;BME280;38939;47.824;14.642;2022-07-29T04:11:31;96779.91;;;20.41;75.87
39769;BME280;38939;47.824;14.642;2022-07-29T04:12:33;96788.13;;;20.45;75.97
39769;BME280;38939;47.824;14.642;2022-07-29T04:13:34;96794.19;;;20.45;75.85
39769;BME280;38939;47.824;14.642;2022-07-29T04:14:36;96792.88;;;20.48;75.55
39769;BME280;38939;47.824;14.642;2022-07-29T04:15:38;96791.56;;;20.50;75.32
39769;BME280;38939;47.824;14.642;2022-07-29T04:16:40;96794.72;;;20.52;75.16
39769;BME280;38939;47.824;14.642;2022-07-29T04:17:42;96791.78;;;20.54;74.85
39769;BME280;38939;47.824;14.642;2022-07-29T04:18:44;96794.19;;;20.55;75.07
39769;BME280;38939;47.824;14.642;2022-07-29T04:19:46;96796.84;;;20.55;74.95
39769;BME280;38939;47.824;14.642;2022-07-29T04:20:48;96794.44;;;20.54;74.79
39769;BME280;38939;47.824;14.642;2022-07-29T04:21:49;96793.66;;;20.53;74.67
39769;BME280;38939;47.824;14.642;2022-07-29T04:22:51;96797.91;;;20.54;74.75
39769;BME280;38939;47.824;14.642;2022-07-29T04:23:53;96795.25;;;20.54;75.06
39769;BME280;38939;47.824;14.642;2022-07-29T04:24:55;96800.56;;;20.54;75.52
39769;BME280;38939;47.824;14.642;2022-07-29T04:26:03;96802.69;;;20.52;75.79
39769;BME280;38939;47.824;14.642;2022-07-29T04:27:05;96793.91;;;20.52;75.43
39769;BME280;38939;47.824;14.642;2022-07-29T04:28:07;96798.97;;;20.53;75.93
39769;BME280;38939;47.824;14.642;2022-07-29T04:29:10;96796.84;;;20.50;75.70
39769;BME280;38939;47.824;14.642;2022-07-29T04:30:13;96798.44;;;20.51;75.87
39769;BME280;38939;47.824;14.642;2022-07-29T04:31:15;96798.44;;;20.51;75.97
39769;BME280;38939;47.824;14.642;2022-07-29T04:32:17;96800.56;;;20.54;75.85
39769;BME280;38939;47.824;14.642;2022-07-29T04:33:19;96797.63;;;20.56;75.74
39769;BME280;38939;47.824;14.642;2022-07-29T04:34:21;96801.09;;;20.56;75.82
39769;BME280;38939;47.824;14.642;2022-07-29T04:35:28;96798.44;;;20.56;75.54
39769;BME280;38939;47.824;14.642;2022-07-29T04:36:38;96803.22;;;20.60;75.50
39769;BME280;38939;47.824;14.642;2022-07-29T04:37:40;96798.19;;;20.63;75.30
39769;BME280;38939;47.824;14.642;2022-07-29T04:38:42;96804.28;;;20.64;75.40
39769;BME280;38939;47.824;14.642;2022-07-29T04:39:43;96801.63;;;20.64;74.73
39769;BME280;38939;47.824;14.642;2022-07-29T04:40:45;96797.09;;;20.64;74.74
39769;BME280;38939;47.824;14.642;2022-07-29T04:41:50;96804.78;;;20.66;74.39
39769;BME280;38939;47.824;14.642;2022-07-29T04:42:55;96800.28;;;20.66;74.30
39769;BME280;38939;47.824;14.642;2022-07-29T04:44:00;96802.94;;;20.66;74.23
39769;BME280;38939;47.824;14.642;2022-07-29T04:45:12;96806.41;;;20.67;73.87
39769;BME280;38939;47.824;14.642;2022-07-29T04:46:14;96803.47;;;20.68;73.83
39769;BME280;38939;47.824;14.642;2022-07-29T04:47:16;96795.53;;;20.68;73.76
39769;BME280;38939;47.824;14.642;2022-07-29T04:48:18;96805.84;;;20.70;73.97
39769;BME280;38939;47.824;14.642;2022-07-29T04:49:24;96797.63;;;20.71;74.20
39769;BME280;38939;47.824;14.642;2022-07-29T04:50:26;96801.88;;;20.72;74.17
39769;BME280;38939;47.824;14.642;2022-07-29T04:51:28;96796.84;;;20.71;74.44
39769;BME280;38939;47.824;14.642;2022-07-29T04:52:30;96801.06;;;20.72;74.21
39769;BME280;38939;47.824;14.642;2022-07-29T04:53:32;96809.53;;;20.74;74.03
39769;BME280;38939;47.824;14.642;2022-07-29T04:54:34;96797.88;;;20.75;74.13
39769;BME280;38939;47.824;14.642;2022-07-29T04:55:36;96803.72;;;20.77;73.89
39769;BME280;38939;47.824;14.642;2022-07-29T04:56:39;96813.25;;;20.78;74.17
39769;BME280;38939;47.824;14.642;2022-07-29T04:57:41;96798.94;;;20.79;74.09
39769;BME280;38939;47.824;14.642;2022-07-29T04:58:43;96803.16;;;20.80;74.33
39769;BME280;38939;47.824;14.642;2022-07-29T04:59:44;96804.75;;;20.81;74.03
39769;BME280;38939;47.824;14.642;2022-07-29T05:00:46;96805.28;;;20.83;74.17
39769;BME280;38939;47.824;14.642;2022-07-29T05:01:48;96805.81;;;20.85;74.24
39769;BME280;38939;47.824;14.642;2022-07-29T05:02:50;96802.38;;;20.85;74.35
39769;BME280;38939;47.824;14.642;2022-07-29T05:03:54;96803.16;;;20.85;74.42
39769;BME280;38939;47.824;14.642;2022-07-29T05:05:00;96805.56;;;20.87;74.34
39769;BME280;38939;47.824;14.642;2022-07-29T05:06:02;96806.34;;;20.87;73.91
39769;BME280;38939;47.824;14.642;2022-07-29T05:07:04;96800.78;;;20.89;73.86
39769;BME280;38939;47.824;14.642;2022-07-29T05:08:06;96800.47;;;20.90;73.71
39769;BME280;38939;47.824;14.642;2022-07-29T05:09:08;96800.22;;;20.92;73.53
39769;BME280;38939;47.824;14.642;2022-07-29T05:10:10;96800.72;;;20.94;74.02
39769;BME280;38939;47.824;14.642;2022-07-29T05:11:13;96799.44;;;20.91;74.23
39769;BME280;38939;47.824;14.642;2022-07-29T05:12:21;96800.47;;;20.90;74.47
39769;BME280;38939;47.824;14.642;2022-07-29T05:13:23;96806.34;;;20.87;74.73
39769;BME280;38939;47.824;14.642;2022-07-29T05:14:25;96798.63;;;20.86;75.59
39769;BME280;38939;47.824;14.642;2022-07-29T05:15:27;96798.13;;;20.84;75.50
39769;BME280;38939;47.824;14.642;2022-07-29T05:16:28;96804.22;;;20.84;75.51
39769;BME280;38939;47.824;14.642;2022-07-29T05:17:30;96801.56;;;20.84;75.37
39769;BME280;38939;47.824;14.642;2022-07-29T05:18:32;96800.78;;;20.84;75.23
39769;BME280;38939;47.824;14.642;2022-07-29T05:19:34;96802.38;;;20.85;74.93
39769;BME280;38939;47.824;14.642;2022-07-29T05:20:40;96808.47;;;20.85;74.88
39769;BME280;38939;47.824;14.642;2022-07-29T05:21:41;96807.91;;;20.88;74.56
39769;BME280;38939;47.824;14.642;2022-07-29T05:22:43;96807.66;;;20.90;74.62
39769;BME280;38939;47.824;14.642;2022-07-29T05:23:45;96800.78;;;20.89;75.43
39769;BME280;38939;47.824;14.642;2022-07-29T05:24:47;96801.81;;;20.88;75.31
39769;BME280;38939;47.824;14.642;2022-07-29T05:25:49;96809.78;;;20.88;75.34
39769;BME280;38939;47.824;14.642;2022-07-29T05:26:51;96804.47;;;20.88;75.00
39769;BME280;38939;47.824;14.642;2022-07-29T05:27:53;96805.78;;;20.90;74.96
39769;BME280;38939;47.824;14.642;2022-07-29T05:28:55;96801.00;;;20.92;74.66
39769;BME280;38939;47.824;14.642;2022-07-29T05:29:58;96804.19;;;20.94;75.77
39769;BME280;38939;47.824;14.642;2022-07-29T05:31:00;96798.34;;;20.92;75.93
39769;BME280;38939;47.824;14.642;2022-07-29T05:32:02;96805.78;;;20.90;76.02
39769;BME280;38939;47.824;14.642;2022-07-29T05:33:04;96799.44;;;20.86;76.41
39769;BME280;38939;47.824;14.642;2022-07-29T05:34:06;96806.06;;;20.84;76.17
39769;BME280;38939;47.824;14.642;2022-07-29T05:35:08;96809.50;;;20.84;76.13
39769;BME280;38939;47.824;14.642;2022-07-29T05:36:10;96809.50;;;20.84;76.16
39769;BME280;38939;47.824;14.642;2022-07-29T05:37:13;96810.59;;;20.83;76.24
39769;BME280;38939;47.824;14.642;2022-07-29T05:38:15;96810.59;;;20.83;76.42
39769;BME280;38939;47.824;14.642;2022-07-29T05:39:17;96807.41;;;20.81;76.47
39769;BME280;38939;47.824;14.642;2022-07-29T05:40:19;96810.84;;;20.82;76.13
39769;BME280;38939;47.824;14.642;2022-07-29T05:41:22;96810.59;;;20.83;76.08
39769;BME280;38939;47.824;14.642;2022-07-29T05:42:24;96817.22;;;20.86;75.98
39769;BME280;38939;47.824;14.642;2022-07-29T05:43:29;96807.13;;;20.88;75.65
39769;BME280;38939;47.824;14.642;2022-07-29T05:44:35;96811.59;;;20.92;75.33
39769;BME280;38939;47.824;14.642;2022-07-29T05:45:38;96814.78;;;20.94;75.22
39769;BME280;38939;47.824;14.642;2022-07-29T05:46:50;96812.44;;;20.93;75.26
39769;BME280;38939;47.824;14.642;2022-07-29T05:47:52;96816.91;;;20.92;74.94